sensor_id;sensor_type;location;lat;lon;timestamp;P1;durP1;ratioP1;P2;durP2;ratioP2
35444;SDS011;21562;49.476;6.086;2024-03-08T00:01:49;36.97;;;18.33;;
35444;SDS011;21562;49.476;6.086;2024-03-08T00:04:15;43.17;;;18.35;;
35444;SDS011;21562;49.476;6.086;2024-03-08T00:06:41;37.75;;;17.85;;
35444;SDS011;21562;49.476;6.086;2024-03-08T00:09:06;34.83;;;18.45;;
35444;SDS011;21562;49.476;6.086;2024-03-08T00:11:35;35.78;;;18.00;;
35444;SDS011;21562;49.476;6.086;2024-03-08T00:14:01;38.47;;;18.75;;
35444;SDS011;21562;49.476;6.086;2024-03-08T00:16:27;35.17;;;18.42;;
35444;SDS011;21562;49.476;6.086;2024-03-08T00:18:52;39.90;;;19.38;;
35444;SDS011;21562;49.476;6.086;2024-03-08T00:21:18;38.08;;;18.08;;
35444;SDS011;21562;49.476;6.086;2024-03-08T00:23:44;36.30;;;18.80;;
35444;SDS011;21562;49.476;6.086;2024-03-08T00:26:09;36.33;;;18.45;;
35444;SDS011;21562;49.476;6.086;2024-03-08T00:28:35;38.00;;;18.63;;
35444;SDS011;21562;49.476;6.086;2024-03-08T00:31:01;35.78;;;17.67;;
35444;SDS011;21562;49.476;6.086;2024-03-08T00:33:27;36.13;;;17.77;;
35444;SDS011;21562;49.476;6.086;2024-03-08T00:35:53;39.00;;;18.60;;
35444;SDS011;21562;49.476;6.086;2024-03-08T00:38:19;33.75;;;17.70;;
35444;SDS011;21562;49.476;6.086;2024-03-08T00:40:45;38.42;;;18.88;;
35444;SDS011;21562;49.476;6.086;2024-03-08T00:43:11;35.97;;;17.25;;
35444;SDS011;21562;49.476;6.086;2024-03-08T00:45:37;36.80;;;17.38;;
35444;SDS011;21562;49.476;6.086;2024-03-08T00:48:03;39.28;;;18.10;;
35444;SDS011;21562;49.476;6.086;2024-03-08T00:50:30;38.88;;;17.90;;
35444;SDS011;21562;49.476;6.086;2024-03-08T00:52:56;36.25;;;17.80;;
35444;SDS011;21562;49.476;6.086;2024-03-08T00:55:22;37.17;;;17.75;;
35444;SDS011;21562;49.476;6.086;2024-03-08T00:57:47;37.08;;;19.65;;
35444;SDS011;21562;49.476;6.086;2024-03-08T01:00:13;37.92;;;18.50;;
35444;SDS011;21562;49.476;6.086;2024-03-08T01:02:39;37.50;;;18.10;;
35444;SDS011;21562;49.476;6.086;2024-03-08T01:05:05;40.00;;;17.98;;
35444;SDS011;21562;49.476;6.086;2024-03-08T01:07:34;39.72;;;18.10;;
35444;SDS011;21562;49.476;6.086;2024-03-08T01:10:01;38.67;;;18.67;;
35444;SDS011;21562;49.476;6.086;2024-03-08T01:12:34;38.05;;;18.13;;
35444;SDS011;21562;49.476;6.086;2024-03-08T01:15:00;37.25;;;17.65;;
35444;SDS011;21562;49.476;6.086;2024-03-08T01:17:26;42.08;;;17.75;;
35444;SDS011;21562;49.476;6.086;2024-03-08T01:19:52;41.80;;;17.90;;
35444;SDS011;21562;49.476;6.086;2024-03-08T01:22:18;39.20;;;17.98;;
35444;SDS011;21562;49.476;6.086;2024-03-08T01:24:44;35.88;;;18.98;;
35444;SDS011;21562;49.476;6.086;2024-03-08T01:27:10;37.20;;;17.92;;
35444;SDS011;21562;49.476;6.086;2024-03-08T01:29:37;36.67;;;17.45;;
35444;SDS011;21562;49.476;6.086;2024-03-08T01:32:03;34.90;;;17.77;;
35444;SDS011;21562;49.476;6.086;2024-03-08T01:34:29;36.42;;;16.85;;
35444;SDS011;21562;49.476;6.086;2024-03-08T01:36:54;34.10;;;17.30;;
35444;SDS011;21562;49.476;6.086;2024-03-08T01:39:21;36.00;;;17.52;;
35444;SDS011;21562;49.476;6.086;2024-03-08T01:41:47;34.65;;;17.17;;
35444;SDS011;21562;49.476;6.086;2024-03-08T01:44:13;36.25;;;17.02;;
35444;SDS011;21562;49.476;6.086;2024-03-08T01:46:43;36.00;;;18.73;;
35444;SDS011;21562;49.476;6.086;2024-03-08T01:49:10;40.97;;;18.00;;
35444;SDS011;21562;49.476;6.086;2024-03-08T01:51:37;38.28;;;17.70;;
35444;SDS011;21562;49.476;6.086;2024-03-08T01:54:05;38.80;;;17.98;;
35444;SDS011;21562;49.476;6.086;2024-03-08T01:56:31;38.83;;;18.50;;
35444;SDS011;21562;49.476;6.086;2024-03-08T01:58:58;42.60;;;20.02;;
35444;SDS011;21562;49.476;6.086;2024-03-08T02:01:24;37.85;;;18.35;;
35444;SDS011;21562;49.476;6.086;2024-03-08T02:03:50;43.05;;;18.45;;
35444;SDS011;21562;49.476;6.086;2024-03-08T02:06:16;38.30;;;17.98;;
35444;SDS011;21562;49.476;6.086;2024-03-08T02:08:42;40.92;;;18.15;;
35444;SDS011;21562;49.476;6.086;2024-03-08T02:11:10;38.72;;;18.50;;
35444;SDS011;21562;49.476;6.086;2024-03-08T02:13:36;35.40;;;18.27;;
35444;SDS011;21562;49.476;6.086;2024-03-08T02:16:02;38.42;;;18.05;;
35444;SDS011;21562;49.476;6.086;2024-03-08T02:18:31;44.22;;;18.60;;
35444;SDS011;21562;49.476;6.086;2024-03-08T02:20:59;39.75;;;18.60;;
35444;SDS011;21562;49.476;6.086;2024-03-08T02:23:26;37.55;;;18.42;;
35444;SDS011;21562;49.476;6.086;2024-03-08T02:25:52;46.33;;;20.25;;
35444;SDS011;21562;49.476;6.086;2024-03-08T02:28:19;38.75;;;18.95;;
35444;SDS011;21562;49.476;6.086;2024-03-08T02:30:45;41.60;;;18.75;;
35444;SDS011;21562;49.476;6.086;2024-03-08T02:33:13;37.67;;;19.15;;
35444;SDS011;21562;49.476;6.086;2024-03-08T02:35:42;37.55;;;19.15;;
35444;SDS011;21562;49.476;6.086;2024-03-08T02:38:12;39.13;;;19.63;;
35444;SDS011;21562;49.476;6.086;2024-03-08T02:40:41;40.03;;;19.35;;
35444;SDS011;21562;49.476;6.086;2024-03-08T02:43:08;43.15;;;20.42;;
35444;SDS011;21562;49.476;6.086;2024-03-08T02:45:34;41.55;;;19.48;;
35444;SDS011;21562;49.476;6.086;2024-03-08T02:48:00;47.30;;;20.42;;
35444;SDS011;21562;49.476;6.086;2024-03-08T02:50:26;39.92;;;20.08;;
35444;SDS011;21562;49.476;6.086;2024-03-08T02:52:52;40.70;;;19.77;;
35444;SDS011;21562;49.476;6.086;2024-03-08T02:55:18;39.70;;;19.08;;
35444;SDS011;21562;49.476;6.086;2024-03-08T02:57:45;41.42;;;18.92;;
35444;SDS011;21562;49.476;6.086;2024-03-08T03:00:12;48.30;;;21.60;;
35444;SDS011;21562;49.476;6.086;2024-03-08T03:02:38;40.83;;;19.63;;
35444;SDS011;21562;49.476;6.086;2024-03-08T03:05:04;39.90;;;19.65;;
35444;SDS011;21562;49.476;6.086;2024-03-08T03:07:34;41.35;;;19.90;;
35444;SDS011;21562;49.476;6.086;2024-03-08T03:10:00;38.97;;;19.15;;
35444;SDS011;21562;49.476;6.086;2024-03-08T03:12:27;40.28;;;20.17;;
35444;SDS011;21562;49.476;6.086;2024-03-08T03:14:56;40.38;;;19.33;;
35444;SDS011;21562;49.476;6.086;2024-03-08T03:17:23;41.88;;;19.67;;
35444;SDS011;21562;49.476;6.086;2024-03-08T03:19:49;39.17;;;19.25;;
35444;SDS011;21562;49.476;6.086;2024-03-08T03:22:16;44.38;;;20.20;;
35444;SDS011;21562;49.476;6.086;2024-03-08T03:24:43;42.78;;;20.95;;
35444;SDS011;21562;49.476;6.086;2024-03-08T03:27:09;43.67;;;19.38;;
35444;SDS011;21562;49.476;6.086;2024-03-08T03:29:38;45.88;;;20.40;;
35444;SDS011;21562;49.476;6.086;2024-03-08T03:32:05;42.20;;;20.83;;
35444;SDS011;21562;49.476;6.086;2024-03-08T03:34:32;48.42;;;21.65;;
35444;SDS011;21562;49.476;6.086;2024-03-08T03:37:01;39.78;;;19.38;;
35444;SDS011;21562;49.476;6.086;2024-03-08T03:39:28;46.85;;;20.98;;
35444;SDS011;21562;49.476;6.086;2024-03-08T03:41:57;43.80;;;20.40;;
35444;SDS011;21562;49.476;6.086;2024-03-08T03:44:23;38.78;;;19.70;;
35444;SDS011;21562;49.476;6.086;2024-03-08T03:46:49;43.67;;;19.52;;
35444;SDS011;21562;49.476;6.086;2024-03-08T03:49:17;44.55;;;21.15;;
35444;SDS011;21562;49.476;6.086;2024-03-08T03:51:43;41.50;;;20.98;;
35444;SDS011;21562;49.476;6.086;2024-03-08T03:54:09;41.38;;;20.08;;
35444;SDS011;21562;49.476;6.086;2024-03-08T03:56:35;47.08;;;20.40;;
35444;SDS011;21562;49.476;6.086;2024-03-08T03:59:01;44.88;;;20.27;;
35444;SDS011;21562;49.476;6.086;2024-03-08T04:01:27;43.53;;;20.42;;
35444;SDS011;21562;49.476;6.086;2024-03-08T04:03:52;41.35;;;19.77;;
35444;SDS011;21562;49.476;6.086;2024-03-08T04:06:18;40.00;;;19.80;;
35444;SDS011;21562;49.476;6.086;2024-03-08T04:08:44;47.53;;;23.10;;
35444;SDS011;21562;49.476;6.086;2024-03-08T04:11:09;46.80;;;21.60;;
35444;SDS011;21562;49.476;6.086;2024-03-08T04:13:35;42.08;;;20.23;;
35444;SDS011;21562;49.476;6.086;2024-03-08T04:16:01;44.72;;;20.63;;
35444;SDS011;21562;49.476;6.086;2024-03-08T04:18:27;44.05;;;20.85;;
35444;SDS011;21562;49.476;6.086;2024-03-08T04:20:53;43.78;;;20.70;;
35444;SDS011;21562;49.476;6.086;2024-03-08T04:23:20;45.65;;;20.33;;
35444;SDS011;21562;49.476;6.086;2024-03-08T04:25:45;42.78;;;21.02;;
35444;SDS011;21562;49.476;6.086;2024-03-08T04:28:11;50.42;;;21.98;;
35444;SDS011;21562;49.476;6.086;2024-03-08T04:30:40;42.35;;;20.85;;
35444;SDS011;21562;49.476;6.086;2024-03-08T04:33:05;43.17;;;20.98;;
35444;SDS011;21562;49.476;6.086;2024-03-08T04:35:32;41.85;;;20.98;;
35444;SDS011;21562;49.476;6.086;2024-03-08T04:37:58;43.15;;;21.38;;
35444;SDS011;21562;49.476;6.086;2024-03-08T04:40:24;43.15;;;20.52;;
35444;SDS011;21562;49.476;6.086;2024-03-08T04:42:50;49.78;;;21.88;;
35444;SDS011;21562;49.476;6.086;2024-03-08T04:45:17;44.05;;;20.75;;
35444;SDS011;21562;49.476;6.086;2024-03-08T04:47:43;45.67;;;21.83;;
35444;SDS011;21562;49.476;6.086;2024-03-08T04:50:08;47.50;;;22.52;;
35444;SDS011;21562;49.476;6.086;2024-03-08T04:52:34;45.67;;;21.30;;
35444;SDS011;21562;49.476;6.086;2024-03-08T04:55:03;43.78;;;21.13;;
35444;SDS011;21562;49.476;6.086;2024-03-08T04:57:30;47.05;;;21.40;;
35444;SDS011;21562;49.476;6.086;2024-03-08T04:59:57;44.28;;;21.40;;
35444;SDS011;21562;49.476;6.086;2024-03-08T05:02:24;46.35;;;21.25;;
35444;SDS011;21562;49.476;6.086;2024-03-08T05:04:50;41.90;;;20.98;;
35444;SDS011;21562;49.476;6.086;2024-03-08T05:07:16;43.70;;;21.60;;
35444;SDS011;21562;49.476;6.086;2024-03-08T05:09:42;41.67;;;21.02;;
35444;SDS011;21562;49.476;6.086;2024-03-08T05:14:42;45.25;;;20.30;;
35444;SDS011;21562;49.476;6.086;2024-03-08T05:17:08;46.08;;;21.45;;
35444;SDS011;21562;49.476;6.086;2024-03-08T05:19:35;43.13;;;21.17;;
35444;SDS011;21562;49.476;6.086;2024-03-08T05:22:01;42.70;;;20.52;;
35444;SDS011;21562;49.476;6.086;2024-03-08T05:24:28;48.83;;;21.42;;
35444;SDS011;21562;49.476;6.086;2024-03-08T05:26:55;38.65;;;19.30;;
35444;SDS011;21562;49.476;6.086;2024-03-08T05:29:20;43.60;;;18.75;;
35444;SDS011;21562;49.476;6.086;2024-03-08T05:31:49;45.63;;;20.02;;
35444;SDS011;21562;49.476;6.086;2024-03-08T05:34:17;44.83;;;20.83;;
35444;SDS011;21562;49.476;6.086;2024-03-08T05:36:44;47.05;;;21.73;;
35444;SDS011;21562;49.476;6.086;2024-03-08T05:39:14;47.90;;;21.83;;
35444;SDS011;21562;49.476;6.086;2024-03-08T05:41:44;41.00;;;20.08;;
35444;SDS011;21562;49.476;6.086;2024-03-08T05:44:10;48.03;;;21.65;;
35444;SDS011;21562;49.476;6.086;2024-03-08T05:46:37;43.55;;;19.75;;
35444;SDS011;21562;49.476;6.086;2024-03-08T05:49:04;46.60;;;21.10;;
35444;SDS011;21562;49.476;6.086;2024-03-08T05:51:31;51.97;;;21.75;;
35444;SDS011;21562;49.476;6.086;2024-03-08T05:54:01;44.75;;;20.67;;
35444;SDS011;21562;49.476;6.086;2024-03-08T05:56:28;42.67;;;20.60;;
35444;SDS011;21562;49.476;6.086;2024-03-08T05:58:54;40.13;;;20.42;;
35444;SDS011;21562;49.476;6.086;2024-03-08T06:01:20;43.08;;;20.75;;
35444;SDS011;21562;49.476;6.086;2024-03-08T06:03:46;44.87;;;20.30;;
35444;SDS011;21562;49.476;6.086;2024-03-08T06:06:14;40.17;;;19.50;;
35444;SDS011;21562;49.476;6.086;2024-03-08T06:08:43;42.38;;;20.40;;
35444;SDS011;21562;49.476;6.086;2024-03-08T06:11:09;41.35;;;19.77;;
35444;SDS011;21562;49.476;6.086;2024-03-08T06:13:35;43.25;;;21.15;;
35444;SDS011;21562;49.476;6.086;2024-03-08T06:16:01;41.53;;;19.63;;
35444;SDS011;21562;49.476;6.086;2024-03-08T06:18:30;43.08;;;20.05;;
35444;SDS011;21562;49.476;6.086;2024-03-08T06:20:56;44.17;;;21.13;;
35444;SDS011;21562;49.476;6.086;2024-03-08T06:23:22;45.03;;;19.75;;
35444;SDS011;21562;49.476;6.086;2024-03-08T06:25:48;45.70;;;20.55;;
35444;SDS011;21562;49.476;6.086;2024-03-08T06:28:14;45.85;;;20.10;;
35444;SDS011;21562;49.476;6.086;2024-03-08T06:30:40;46.28;;;20.63;;
35444;SDS011;21562;49.476;6.086;2024-03-08T06:33:06;44.88;;;20.92;;
35444;SDS011;21562;49.476;6.086;2024-03-08T06:35:35;43.78;;;21.10;;
35444;SDS011;21562;49.476;6.086;2024-03-08T06:38:03;46.92;;;21.10;;
35444;SDS011;21562;49.476;6.086;2024-03-08T06:40:29;38.75;;;19.23;;
35444;SDS011;21562;49.476;6.086;2024-03-08T06:42:55;42.75;;;19.90;;
35444;SDS011;21562;49.476;6.086;2024-03-08T06:45:21;43.55;;;20.00;;
35444;SDS011;21562;49.476;6.086;2024-03-08T06:47:48;44.63;;;20.98;;
35444;SDS011;21562;49.476;6.086;2024-03-08T06:50:14;40.22;;;19.77;;
35444;SDS011;21562;49.476;6.086;2024-03-08T06:52:40;47.50;;;21.13;;
35444;SDS011;21562;49.476;6.086;2024-03-08T06:55:07;45.22;;;21.02;;
35444;SDS011;21562;49.476;6.086;2024-03-08T06:57:37;45.20;;;20.73;;
35444;SDS011;21562;49.476;6.086;2024-03-08T07:00:05;43.63;;;19.33;;
35444;SDS011;21562;49.476;6.086;2024-03-08T07:02:43;44.67;;;19.17;;
35444;SDS011;21562;49.476;6.086;2024-03-08T07:05:14;42.50;;;19.65;;
35444;SDS011;21562;49.476;6.086;2024-03-08T07:07:41;43.92;;;20.02;;
35444;SDS011;21562;49.476;6.086;2024-03-08T07:10:08;41.25;;;19.63;;
35444;SDS011;21562;49.476;6.086;2024-03-08T07:12:36;41.60;;;20.55;;
35444;SDS011;21562;49.476;6.086;2024-03-08T07:15:04;42.65;;;19.45;;
35444;SDS011;21562;49.476;6.086;2024-03-08T07:17:30;47.35;;;21.23;;
35444;SDS011;21562;49.476;6.086;2024-03-08T07:19:59;43.22;;;20.63;;
35444;SDS011;21562;49.476;6.086;2024-03-08T07:22:32;41.28;;;20.15;;
35444;SDS011;21562;49.476;6.086;2024-03-08T07:24:58;41.50;;;19.63;;
35444;SDS011;21562;49.476;6.086;2024-03-08T07:27:32;41.35;;;19.60;;
35444;SDS011;21562;49.476;6.086;2024-03-08T07:29:59;41.42;;;19.58;;
35444;SDS011;21562;49.476;6.086;2024-03-08T07:32:25;39.97;;;18.77;;
35444;SDS011;21562;49.476;6.086;2024-03-08T07:34:54;45.00;;;19.30;;
35444;SDS011;21562;49.476;6.086;2024-03-08T07:37:21;48.35;;;20.45;;
35444;SDS011;21562;49.476;6.086;2024-03-08T07:39:47;40.67;;;19.58;;
35444;SDS011;21562;49.476;6.086;2024-03-08T07:42:12;40.35;;;18.80;;
35444;SDS011;21562;49.476;6.086;2024-03-08T07:44:38;39.35;;;18.75;;
35444;SDS011;21562;49.476;6.086;2024-03-08T07:47:04;44.80;;;18.67;;
35444;SDS011;21562;49.476;6.086;2024-03-08T07:49:34;41.42;;;19.45;;
35444;SDS011;21562;49.476;6.086;2024-03-08T07:52:00;40.35;;;19.98;;
35444;SDS011;21562;49.476;6.086;2024-03-08T07:54:26;37.78;;;18.30;;
35444;SDS011;21562;49.476;6.086;2024-03-08T07:56:52;43.33;;;18.27;;
35444;SDS011;21562;49.476;6.086;2024-03-08T09:48:22;34.08;;;17.10;;
35444;SDS011;21562;49.476;6.086;2024-03-08T09:57:57;29.33;;;12.02;;
35444;SDS011;21562;49.476;6.086;2024-03-08T10:00:56;30.77;;;13.38;;
35444;SDS011;21562;49.476;6.086;2024-03-08T10:03:22;28.50;;;14.30;;
35444;SDS011;21562;49.476;6.086;2024-03-08T10:05:48;26.92;;;12.63;;
35444;SDS011;21562;49.476;6.086;2024-03-08T10:08:15;23.88;;;12.63;;
35444;SDS011;21562;49.476;6.086;2024-03-08T10:42:22;28.33;;;15.23;;
35444;SDS011;21562;49.476;6.086;2024-03-08T10:45:05;28.20;;;15.77;;
35444;SDS011;21562;49.476;6.086;2024-03-08T10:47:43;29.98;;;16.27;;
35444;SDS011;21562;49.476;6.086;2024-03-08T10:50:23;29.90;;;15.90;;
35444;SDS011;21562;49.476;6.086;2024-03-08T12:44:56;31.98;;;13.88;;
35444;SDS011;21562;49.476;6.086;2024-03-08T12:47:24;27.52;;;13.73;;
35444;SDS011;21562;49.476;6.086;2024-03-08T12:49:54;26.08;;;13.82;;
35444;SDS011;21562;49.476;6.086;2024-03-08T12:52:20;27.20;;;14.10;;
35444;SDS011;21562;49.476;6.086;2024-03-08T12:54:45;24.20;;;12.30;;
35444;SDS011;21562;49.476;6.086;2024-03-08T12:57:12;21.17;;;11.35;;
35444;SDS011;21562;49.476;6.086;2024-03-08T12:59:38;24.65;;;11.40;;
35444;SDS011;21562;49.476;6.086;2024-03-08T13:02:10;26.27;;;15.23;;
35444;SDS011;21562;49.476;6.086;2024-03-08T15:30:12;23.17;;;11.55;;
35444;SDS011;21562;49.476;6.086;2024-03-08T15:32:47;21.38;;;11.02;;
35444;SDS011;21562;49.476;6.086;2024-03-08T15:35:21;17.27;;;10.43;;
35444;SDS011;21562;49.476;6.086;2024-03-08T15:37:47;23.48;;;13.07;;
35444;SDS011;21562;49.476;6.086;2024-03-08T15:40:15;23.23;;;12.95;;
35444;SDS011;21562;49.476;6.086;2024-03-08T15:42:48;19.45;;;10.77;;
35444;SDS011;21562;49.476;6.086;2024-03-08T15:45:14;24.77;;;11.52;;
35444;SDS011;21562;49.476;6.086;2024-03-08T15:47:41;20.25;;;13.32;;
35444;SDS011;21562;49.476;6.086;2024-03-08T15:50:09;18.38;;;10.13;;
35444;SDS011;21562;49.476;6.086;2024-03-08T15:52:37;23.17;;;13.43;;
35444;SDS011;21562;49.476;6.086;2024-03-08T15:55:09;23.58;;;14.25;;
35444;SDS011;21562;49.476;6.086;2024-03-08T15:57:46;22.58;;;13.13;;
35444;SDS011;21562;49.476;6.086;2024-03-08T16:00:16;23.83;;;14.27;;
35444;SDS011;21562;49.476;6.086;2024-03-08T16:03:26;25.30;;;14.18;;
35444;SDS011;21562;49.476;6.086;2024-03-08T16:06:00;24.38;;;14.68;;
35444;SDS011;21562;49.476;6.086;2024-03-08T16:11:49;22.67;;;14.65;;
35444;SDS011;21562;49.476;6.086;2024-03-08T16:14:19;31.52;;;14.88;;
35444;SDS011;21562;49.476;6.086;2024-03-08T16:16:51;24.38;;;14.18;;
35444;SDS011;21562;49.476;6.086;2024-03-08T16:19:37;22.63;;;13.38;;
35444;SDS011;21562;49.476;6.086;2024-03-08T16:22:06;29.00;;;14.88;;
35444;SDS011;21562;49.476;6.086;2024-03-08T16:24:32;25.92;;;14.52;;
35444;SDS011;21562;49.476;6.086;2024-03-08T16:27:04;22.10;;;13.50;;
35444;SDS011;21562;49.476;6.086;2024-03-08T16:29:49;21.48;;;12.85;;
35444;SDS011;21562;49.476;6.086;2024-03-08T16:36:19;24.90;;;13.95;;
35444;SDS011;21562;49.476;6.086;2024-03-08T16:38:52;23.70;;;12.68;;
35444;SDS011;21562;49.476;6.086;2024-03-08T17:03:30;27.63;;;15.43;;
35444;SDS011;21562;49.476;6.086;2024-03-08T17:27:39;26.90;;;15.20;;
35444;SDS011;21562;49.476;6.086;2024-03-08T17:30:14;26.40;;;15.40;;
35444;SDS011;21562;49.476;6.086;2024-03-08T17:33:01;28.17;;;14.48;;
35444;SDS011;21562;49.476;6.086;2024-03-08T17:35:35;28.50;;;15.18;;
35444;SDS011;21562;49.476;6.086;2024-03-08T17:38:11;29.77;;;15.82;;
35444;SDS011;21562;49.476;6.086;2024-03-08T17:40:39;28.30;;;15.60;;
35444;SDS011;21562;49.476;6.086;2024-03-08T17:43:09;28.60;;;15.90;;
35444;SDS011;21562;49.476;6.086;2024-03-08T19:46:17;36.28;;;17.90;;
35444;SDS011;21562;49.476;6.086;2024-03-08T19:58:51;33.13;;;18.73;;
35444;SDS011;21562;49.476;6.086;2024-03-08T20:01:35;36.42;;;18.38;;
35444;SDS011;21562;49.476;6.086;2024-03-08T20:04:03;35.17;;;18.17;;
35444;SDS011;21562;49.476;6.086;2024-03-08T20:17:43;38.72;;;18.77;;
35444;SDS011;21562;49.476;6.086;2024-03-08T20:23:13;38.20;;;19.35;;
35444;SDS011;21562;49.476;6.086;2024-03-08T20:26:06;38.58;;;18.00;;
35444;SDS011;21562;49.476;6.086;2024-03-08T20:28:35;40.25;;;19.38;;
35444;SDS011;21562;49.476;6.086;2024-03-08T20:31:03;36.17;;;18.27;;
35444;SDS011;21562;49.476;6.086;2024-03-08T20:33:30;35.40;;;18.05;;
35444;SDS011;21562;49.476;6.086;2024-03-08T20:35:57;36.05;;;18.77;;
35444;SDS011;21562;49.476;6.086;2024-03-08T20:38:28;39.40;;;19.67;;
35444;SDS011;21562;49.476;6.086;2024-03-08T20:43:48;36.30;;;17.58;;
35444;SDS011;21562;49.476;6.086;2024-03-08T20:46:46;41.88;;;19.60;;
35444;SDS011;21562;49.476;6.086;2024-03-08T20:49:12;39.05;;;18.55;;
35444;SDS011;21562;49.476;6.086;2024-03-08T20:51:44;40.03;;;18.65;;
35444;SDS011;21562;49.476;6.086;2024-03-08T20:54:10;41.78;;;20.65;;
35444;SDS011;21562;49.476;6.086;2024-03-08T20:56:40;38.90;;;18.25;;
35444;SDS011;21562;49.476;6.086;2024-03-08T20:59:06;38.45;;;19.02;;
35444;SDS011;21562;49.476;6.086;2024-03-08T21:01:34;43.05;;;19.58;;
35444;SDS011;21562;49.476;6.086;2024-03-08T21:04:04;40.05;;;19.88;;
35444;SDS011;21562;49.476;6.086;2024-03-08T21:06:30;40.35;;;18.75;;
35444;SDS011;21562;49.476;6.086;2024-03-08T21:08:59;42.63;;;20.13;;
35444;SDS011;21562;49.476;6.086;2024-03-08T21:11:25;39.53;;;19.33;;
35444;SDS011;21562;49.476;6.086;2024-03-08T21:13:52;38.38;;;20.10;;
35444;SDS011;21562;49.476;6.086;2024-03-08T21:16:18;42.80;;;19.25;;
35444;SDS011;21562;49.476;6.086;2024-03-08T21:18:44;39.20;;;20.05;;
35444;SDS011;21562;49.476;6.086;2024-03-08T21:21:10;43.10;;;18.92;;
35444;SDS011;21562;49.476;6.086;2024-03-08T21:23:36;40.03;;;19.88;;
35444;SDS011;21562;49.476;6.086;2024-03-08T21:26:02;38.85;;;19.77;;
35444;SDS011;21562;49.476;6.086;2024-03-08T21:28:36;40.72;;;20.17;;
35444;SDS011;21562;49.476;6.086;2024-03-08T21:31:05;39.58;;;19.27;;
35444;SDS011;21562;49.476;6.086;2024-03-08T21:33:31;39.10;;;19.35;;
35444;SDS011;21562;49.476;6.086;2024-03-08T21:35:59;38.85;;;18.90;;
35444;SDS011;21562;49.476;6.086;2024-03-08T21:38:30;37.97;;;18.58;;
35444;SDS011;21562;49.476;6.086;2024-03-08T21:41:01;44.60;;;19.85;;
35444;SDS011;21562;49.476;6.086;2024-03-08T21:43:36;42.22;;;20.17;;
35444;SDS011;21562;49.476;6.086;2024-03-08T21:46:11;41.05;;;20.08;;
35444;SDS011;21562;49.476;6.086;2024-03-08T21:48:40;40.58;;;18.73;;
35444;SDS011;21562;49.476;6.086;2024-03-08T21:51:09;39.97;;;19.23;;
35444;SDS011;21562;49.476;6.086;2024-03-08T21:53:38;36.92;;;18.60;;
35444;SDS011;21562;49.476;6.086;2024-03-08T21:56:05;44.17;;;19.30;;
35444;SDS011;21562;49.476;6.086;2024-03-08T21:58:40;42.97;;;19.25;;
35444;SDS011;21562;49.476;6.086;2024-03-08T22:01:06;42.40;;;20.63;;
35444;SDS011;21562;49.476;6.086;2024-03-08T22:03:34;39.90;;;19.80;;
35444;SDS011;21562;49.476;6.086;2024-03-08T22:06:00;40.05;;;19.80;;
35444;SDS011;21562;49.476;6.086;2024-03-08T22:08:34;36.53;;;17.97;;
35444;SDS011;21562;49.476;6.086;2024-03-08T22:11:03;38.17;;;19.58;;
35444;SDS011;21562;49.476;6.086;2024-03-08T22:13:31;39.72;;;20.00;;
35444;SDS011;21562;49.476;6.086;2024-03-08T22:15:57;40.08;;;20.58;;
35444;SDS011;21562;49.476;6.086;2024-03-08T22:18:22;42.40;;;20.30;;
35444;SDS011;21562;49.476;6.086;2024-03-08T22:20:49;43.55;;;20.70;;
35444;SDS011;21562;49.476;6.086;2024-03-08T22:23:17;39.45;;;19.67;;
35444;SDS011;21562;49.476;6.086;2024-03-08T22:25:48;44.40;;;20.65;;
35444;SDS011;21562;49.476;6.086;2024-03-08T22:28:15;40.15;;;19.70;;
35444;SDS011;21562;49.476;6.086;2024-03-08T22:30:42;44.67;;;22.08;;
35444;SDS011;21562;49.476;6.086;2024-03-08T22:33:09;42.47;;;20.23;;
35444;SDS011;21562;49.476;6.086;2024-03-08T22:35:36;43.65;;;20.13;;
35444;SDS011;21562;49.476;6.086;2024-03-08T22:38:02;38.53;;;20.00;;
35444;SDS011;21562;49.476;6.086;2024-03-08T22:40:32;43.90;;;20.83;;
35444;SDS011;21562;49.476;6.086;2024-03-08T22:42:57;42.25;;;20.92;;
35444;SDS011;21562;49.476;6.086;2024-03-08T22:45:23;41.47;;;20.02;;
35444;SDS011;21562;49.476;6.086;2024-03-08T22:47:49;42.22;;;21.40;;
35444;SDS011;21562;49.476;6.086;2024-03-08T22:50:15;43.03;;;21.40;;
35444;SDS011;21562;49.476;6.086;2024-03-08T22:52:42;40.38;;;19.30;;
35444;SDS011;21562;49.476;6.086;2024-03-08T22:55:13;41.17;;;20.58;;
35444;SDS011;21562;49.476;6.086;2024-03-08T22:57:43;46.15;;;22.40;;
35444;SDS011;21562;49.476;6.086;2024-03-08T23:00:11;48.20;;;22.35;;
35444;SDS011;21562;49.476;6.086;2024-03-08T23:02:49;44.22;;;22.30;;
35444;SDS011;21562;49.476;6.086;2024-03-08T23:05:17;45.33;;;23.17;;
35444;SDS011;21562;49.476;6.086;2024-03-08T23:07:44;46.38;;;22.88;;
35444;SDS011;21562;49.476;6.086;2024-03-08T23:10:11;53.65;;;23.58;;
35444;SDS011;21562;49.476;6.086;2024-03-08T23:12:38;41.25;;;22.40;;
35444;SDS011;21562;49.476;6.086;2024-03-08T23:15:09;44.00;;;22.58;;
35444;SDS011;21562;49.476;6.086;2024-03-08T23:17:45;48.40;;;22.73;;
35444;SDS011;21562;49.476;6.086;2024-03-08T23:20:15;49.13;;;23.27;;
35444;SDS011;21562;49.476;6.086;2024-03-08T23:22:48;47.13;;;22.88;;
35444;SDS011;21562;49.476;6.086;2024-03-08T23:25:20;47.50;;;22.80;;
35444;SDS011;21562;49.476;6.086;2024-03-08T23:27:53;48.60;;;22.88;;
35444;SDS011;21562;49.476;6.086;2024-03-08T23:30:21;47.20;;;23.23;;
35444;SDS011;21562;49.476;6.086;2024-03-08T23:32:52;51.33;;;23.23;;
35444;SDS011;21562;49.476;6.086;2024-03-08T23:35:23;55.80;;;25.42;;
35444;SDS011;21562;49.476;6.086;2024-03-08T23:37:48;46.10;;;22.55;;
35444;SDS011;21562;49.476;6.086;2024-03-08T23:40:15;48.22;;;23.67;;
35444;SDS011;21562;49.476;6.086;2024-03-08T23:42:43;54.53;;;24.80;;
35444;SDS011;21562;49.476;6.086;2024-03-08T23:45:10;54.70;;;23.35;;
35444;SDS011;21562;49.476;6.086;2024-03-08T23:47:49;48.20;;;23.35;;
35444;SDS011;21562;49.476;6.086;2024-03-08T23:50:18;53.03;;;23.73;;
35444;SDS011;21562;49.476;6.086;2024-03-08T23:52:47;49.15;;;23.30;;
35444;SDS011;21562;49.476;6.086;2024-03-08T23:55:20;48.30;;;23.17;;
35444;SDS011;21562;49.476;6.086;2024-03-08T23:58:01;46.63;;;23.33;;
